Terminal Aerodrome Forecast
Issued by NWS

Home | Current Version | Previous Version | Text Only | Print | Product List | Glossary On
Versions: 1 2 3 4 5 6 7 8 9 10 11 12 13 14 15 16 17 18 19 20 21 22 23 24 25 26 27 28
000
FTUS42 KJAX 312346
TAFVQQ
TAF
KVQQ 312346Z 0100/0124 12004KT P6SM VCSH SCT025 BKN070 OVC120
     FM010200 00000KT P6SM BKN120 BKN250
     FM011300 20004KT P6SM VCSH SCT025 BKN070 OVC250
     FM011600 13007KT P6SM VCTS SCT020 BKN030CB BKN120 PROB30
      0116/0120 VRB15G25KT 3SM +TSRA BR SCT015 BKN025CB OVC070=

USA.gov is the U.S. government's official web portal to all federal, state and local government web resources and services.